Time;durP1;ratioP1;P1;durP2;ratioP2;P2;SDS_P1;SDS_P2;PMS_P1;PMS_P2;Temp;Humidity;BMP_temperature;BMP_pressure;BME280_temperature;BME280_humidity;BME280_pressure;Samples;Min_cycle;Max_cycle;Signal;HPM_P1;HPM_P2
2023/12/25 00:02:34;;;;;;;5.40;3.40;;;;;;;6.64;95.19;97236.50;226474;1269;24281;-75
2023/12/25 00:07:41;;;;;;;4.50;3.10;;;;;;;6.69;95.37;97227.23;226462;1274;22567;-74
2023/12/25 00:12:43;;;;;;;4.90;2.70;;;;;;;6.77;95.46;97220.95;226445;1274;22946;-76
2023/12/25 00:17:45;;;;;;;4.20;2.20;;;;;;;6.87;95.49;97217.19;226473;1273;22686;-75
2023/12/25 00:22:50;;;;;;;3.40;2.20;;;;;;;6.96;95.15;97221.07;226406;1274;24248;-76
2023/12/25 00:27:53;;;;;;;4.90;2.50;;;;;;;7.06;95.27;97228.89;226389;1274;22540;-76
2023/12/25 00:32:55;;;;;;;2.50;1.70;;;;;;;7.14;95.10;97234.73;226462;1272;24250;-74
2023/12/25 00:37:57;;;;;;;2.30;1.30;;;;;;;7.24;94.94;97234.20;226375;1272;22587;-74
2023/12/25 00:43:04;;;;;;;2.70;1.60;;;;;;;7.35;94.91;97236.33;226419;1273;22592;-74
2023/12/25 00:48:07;;;;;;;2.60;1.80;;;;;;;7.45;94.67;97230.80;226422;1272;22545;-74
2023/12/25 00:53:09;;;;;;;2.20;1.40;;;;;;;7.52;94.18;97241.70;226396;1269;22564;-74
2023/12/25 00:58:11;;;;;;;3.70;1.70;;;;;;;7.58;94.21;97251.95;226425;1271;22534;-76
2023/12/25 01:03:13;;;;;;;1.80;1.30;;;;;;;7.65;93.83;97243.20;226475;1266;22644;-74
2023/12/25 01:08:15;;;;;;;1.90;1.20;;;;;;;7.69;93.68;97254.67;226442;1273;22640;-75
2023/12/25 01:13:17;;;;;;;2.10;1.50;;;;;;;7.72;93.23;97275.96;226498;1272;23440;-75
2023/12/25 01:18:19;;;;;;;1.40;1.10;;;;;;;7.76;93.24;97279.35;226472;1272;22601;-75
2023/12/25 01:23:21;;;;;;;1.30;1.10;;;;;;;7.80;92.94;97273.36;226414;1272;24388;-75
2023/12/25 01:28:23;;;;;;;0.80;0.70;;;;;;;7.84;92.72;97278.73;226499;1273;24935;-75
2023/12/25 01:33:25;;;;;;;1.40;1.00;;;;;;;7.89;92.59;97266.36;226443;1272;22528;-75
2023/12/25 01:38:27;;;;;;;2.40;1.90;;;;;;;7.91;92.47;97273.11;226428;1273;22893;-76
2023/12/25 01:43:29;;;;;;;1.50;1.00;;;;;;;7.92;92.23;97276.83;226390;1272;22605;-76
2023/12/25 01:48:32;;;;;;;1.00;0.90;;;;;;;7.93;92.16;97285.36;226494;1273;22643;-76
2023/12/25 01:53:35;;;;;;;0.80;0.80;;;;;;;7.97;92.10;97281.67;226326;1273;24343;-76
2023/12/25 01:58:37;;;;;;;0.90;0.60;;;;;;;7.98;92.20;97274.67;226560;1273;22544;-75
2023/12/25 02:03:39;;;;;;;0.80;0.80;;;;;;;8.00;92.12;97280.30;226543;1272;23027;-75
2023/12/25 02:08:42;;;;;;;1.40;1.00;;;;;;;8.04;91.96;97280.59;226485;1272;22690;-76
2023/12/25 02:13:44;;;;;;;1.90;1.00;;;;;;;8.07;92.04;97279.64;226414;1272;22543;-75
2023/12/25 02:18:46;;;;;;;1.20;0.90;;;;;;;8.12;91.64;97289.83;226473;1274;22544;-75
2023/12/25 02:23:58;;;;;;;1.10;0.80;;;;;;;8.17;91.83;97286.03;226486;1270;24256;-76
2023/12/25 02:29:01;;;;;;;1.10;0.70;;;;;;;8.23;91.83;97288.55;226415;1273;24284;-76
2023/12/25 02:34:04;;;;;;;1.70;0.70;;;;;;;8.30;91.72;97291.98;226415;1269;23213;-75
2023/12/25 02:39:06;;;;;;;2.20;0.80;;;;;;;8.35;91.58;97299.95;226433;1271;22542;-75
2023/12/25 02:44:08;;;;;;;1.90;0.90;;;;;;;8.39;91.15;97308.76;226455;1272;22572;-76
2023/12/25 02:49:11;;;;;;;1.60;0.80;;;;;;;8.40;91.26;97304.75;226363;1263;22531;-75
2023/12/25 02:54:14;;;;;;;1.30;0.90;;;;;;;8.44;91.06;97300.52;226416;1274;22612;-75
2023/12/25 02:59:16;;;;;;;1.20;0.70;;;;;;;8.53;90.95;97312.57;226383;1269;22533;-75
2023/12/25 03:04:18;;;;;;;1.00;0.60;;;;;;;8.60;90.95;97304.36;226447;1274;22548;-76
2023/12/25 03:09:20;;;;;;;0.80;0.60;;;;;;;8.66;90.50;97314.19;226531;1273;22554;-77
2023/12/25 03:14:22;;;;;;;0.60;0.60;;;;;;;8.71;90.53;97318.91;226362;1266;22576;-76
2023/12/25 03:19:24;;;;;;;0.50;0.30;;;;;;;8.77;90.29;97331.59;226540;1273;22550;-76
2023/12/25 03:24:27;;;;;;;0.90;0.40;;;;;;;8.83;90.32;97332.48;226476;1274;22543;-76
2023/12/25 03:29:28;;;;;;;0.50;0.50;;;;;;;8.92;90.12;97329.63;226462;1273;25243;-75
2023/12/25 03:34:30;;;;;;;0.40;0.40;;;;;;;9.01;89.86;97324.34;226541;1260;22551;-73
2023/12/25 03:39:32;;;;;;;0.40;0.40;;;;;;;9.10;89.85;97329.79;226518;1272;22551;-76
2023/12/25 03:44:34;;;;;;;0.70;0.40;;;;;;;9.18;89.20;97338.56;226410;1272;22546;-73
2023/12/25 03:49:37;;;;;;;1.00;0.40;;;;;;;9.24;89.04;97344.83;226478;1256;23492;-75
2023/12/25 03:54:39;;;;;;;0.40;0.20;;;;;;;9.28;88.80;97348.54;226460;1273;22567;-76
2023/12/25 03:59:41;;;;;;;0.30;0.30;;;;;;;9.31;88.53;97357.08;226399;1269;24263;-75
2023/12/25 04:04:44;;;;;;;0.30;0.30;;;;;;;9.34;88.45;97361.94;226451;1272;22574;-74
2023/12/25 04:09:46;;;;;;;0.60;0.50;;;;;;;9.36;88.50;97368.79;226412;1251;22599;-74
2023/12/25 04:14:49;;;;;;;0.60;0.30;;;;;;;9.43;88.31;97371.81;226517;1270;25524;-74
2023/12/25 04:19:51;;;;;;;0.30;0.30;;;;;;;9.49;87.57;97394.36;226498;1273;22563;-75
2023/12/25 04:24:53;;;;;;;0.60;0.30;;;;;;;9.50;87.45;97406.56;226495;1274;23169;-75
2023/12/25 04:29:55;;;;;;;0.90;0.40;;;;;;;9.45;87.46;97415.37;226426;1274;23024;-75
2023/12/25 04:34:58;;;;;;;0.50;0.30;;;;;;;9.39;87.85;97410.69;226506;1273;23389;-74
2023/12/25 04:40:00;;;;;;;0.20;0.20;;;;;;;9.33;87.54;97418.81;226488;1273;22569;-74
2023/12/25 04:45:03;;;;;;;0.40;0.30;;;;;;;9.26;87.72;97419.95;226395;1273;24269;-74
2023/12/25 04:50:06;;;;;;;0.60;0.40;;;;;;;9.23;87.82;97435.17;226472;1273;22537;-74
2023/12/25 04:55:09;;;;;;;0.30;0.30;;;;;;;9.19;87.87;97438.08;226521;1273;22543;-74
2023/12/25 05:00:12;;;;;;;0.20;0.20;;;;;;;9.21;87.80;97435.38;226388;1267;23029;-74
2023/12/25 05:05:15;;;;;;;0.30;0.30;;;;;;;9.23;87.62;97410.64;226652;1274;22544;-74
2023/12/25 05:10:17;;;;;;;0.30;0.30;;;;;;;9.24;87.46;97410.19;226442;1274;22528;-74
2023/12/25 05:15:19;;;;;;;0.30;0.30;;;;;;;9.23;87.55;97415.27;226494;1273;22524;-74
2023/12/25 05:20:21;;;;;;;0.50;0.50;;;;;;;9.21;87.36;97412.83;226361;1273;22560;-74
2023/12/25 05:25:23;;;;;;;0.80;0.30;;;;;;;9.20;87.26;97409.33;226423;1251;23028;-74
2023/12/25 05:30:25;;;;;;;1.00;0.80;;;;;;;9.19;87.41;97408.09;226483;1274;22540;-74
2023/12/25 05:35:27;;;;;;;0.40;0.40;;;;;;;9.20;87.42;97404.27;226440;1272;24965;-74
2023/12/25 05:40:29;;;;;;;0.60;0.30;;;;;;;9.20;87.31;97411.92;226396;1273;22561;-74
2023/12/25 05:45:31;;;;;;;1.30;0.50;;;;;;;9.19;87.34;97413.27;226431;1273;22549;-74
2023/12/25 05:50:33;;;;;;;0.70;0.40;;;;;;;9.19;87.22;97425.75;226342;1273;22576;-75
2023/12/25 05:55:35;;;;;;;1.10;0.40;;;;;;;9.22;87.20;97424.19;226469;1273;22555;-74
2023/12/25 06:00:37;;;;;;;1.60;0.70;;;;;;;9.24;86.98;97431.06;226500;1274;22663;-75
2023/12/25 06:05:41;;;;;;;0.80;0.40;;;;;;;9.26;86.54;97430.30;226459;1273;22540;-74
2023/12/25 06:10:43;;;;;;;0.80;0.40;;;;;;;9.27;86.70;97439.33;226398;1274;24952;-75
2023/12/25 06:15:45;;;;;;;0.80;0.40;;;;;;;9.29;86.73;97436.39;226441;1273;22541;-75
2023/12/25 06:20:47;;;;;;;0.50;0.30;;;;;;;9.32;86.69;97444.20;226381;1273;22605;-73
2023/12/25 06:25:50;;;;;;;0.70;0.40;;;;;;;9.35;86.19;97458.42;226426;1273;22551;-73
2023/12/25 06:30:52;;;;;;;0.90;0.50;;;;;;;9.36;86.19;97457.30;226368;1273;22536;-74
2023/12/25 06:35:54;;;;;;;0.90;0.50;;;;;;;9.35;86.17;97465.02;226326;1274;23020;-74
2023/12/25 06:40:56;;;;;;;0.70;0.20;;;;;;;9.34;86.22;97467.20;226455;1267;22554;-74
2023/12/25 06:45:58;;;;;;;0.70;0.40;;;;;;;9.31;86.37;97480.55;226506;1274;22547;-74
2023/12/25 06:51:00;;;;;;;0.80;0.30;;;;;;;9.28;86.30;97477.23;226539;1274;22551;-75
2023/12/25 06:56:04;;;;;;;0.20;0.20;;;;;;;9.25;86.37;97487.27;226393;1273;22552;-74
2023/12/25 07:01:06;;;;;;;0.40;0.40;;;;;;;9.20;86.67;97490.29;226486;1274;22537;-73
2023/12/25 07:06:09;;;;;;;0.50;0.30;;;;;;;9.15;86.70;97482.02;226349;1273;24893;-73
2023/12/25 07:11:11;;;;;;;0.40;0.40;;;;;;;9.14;86.67;97476.78;226543;1271;24195;-74
2023/12/25 07:16:23;;;;;;;0.50;0.40;;;;;;;9.14;86.56;97477.63;226417;1273;22534;-74
2023/12/25 07:21:25;;;;;;;0.70;0.40;;;;;;;9.16;86.46;97498.23;226401;1270;22564;-74
2023/12/25 07:26:28;;;;;;;1.00;0.40;;;;;;;9.17;86.55;97497.70;226408;1273;22548;-73
2023/12/25 07:31:30;;;;;;;0.70;0.60;;;;;;;9.19;86.37;97489.25;226449;1270;22556;-74
2023/12/25 07:36:32;;;;;;;0.70;0.60;;;;;;;9.22;86.38;97491.00;226368;1273;22555;-74
2023/12/25 07:41:34;;;;;;;1.30;1.00;;;;;;;9.24;86.27;97495.00;226547;1273;22544;-75
2023/12/25 07:46:36;;;;;;;0.70;0.70;;;;;;;9.24;86.22;97498.00;226603;1273;22547;-74
2023/12/25 07:51:38;;;;;;;1.00;0.70;;;;;;;9.23;85.93;97493.84;226488;1266;22541;-75
2023/12/25 07:56:40;;;;;;;1.60;0.90;;;;;;;9.25;85.98;97504.65;226527;1273;22547;-74
2023/12/25 08:01:42;;;;;;;0.70;0.60;;;;;;;9.25;85.68;97498.05;226521;1270;22610;-75
2023/12/25 08:06:45;;;;;;;1.20;0.90;;;;;;;9.25;85.84;97499.09;226425;1272;22922;-75
2023/12/25 08:11:49;;;;;;;1.00;0.80;;;;;;;9.27;85.66;97497.42;226379;1270;22579;-75
2023/12/25 08:16:51;;;;;;;1.20;0.80;;;;;;;9.33;85.74;97496.90;226458;1273;22533;-75
2023/12/25 08:21:53;;;;;;;1.50;0.90;;;;;;;9.40;85.35;97498.97;226478;1273;22568;-74
2023/12/25 08:26:58;;;;;;;1.50;0.90;;;;;;;9.44;85.61;97503.66;226383;1273;22968;-75
2023/12/25 08:32:00;;;;;;;1.20;1.00;;;;;;;9.46;85.37;97493.02;226446;1270;22578;-76
2023/12/25 08:37:02;;;;;;;1.90;0.90;;;;;;;9.47;85.36;97509.08;226524;1271;22552;-75
2023/12/25 08:42:04;;;;;;;1.70;0.80;;;;;;;9.49;85.22;97512.95;226451;1266;22548;-75
2023/12/25 08:47:07;;;;;;;2.00;1.00;;;;;;;9.51;85.03;97503.64;226244;1273;24009;-76
2023/12/25 08:52:09;;;;;;;2.00;1.40;;;;;;;9.53;85.12;97511.34;226413;1273;22593;-75
2023/12/25 08:57:11;;;;;;;3.30;1.50;;;;;;;9.57;84.72;97506.83;226429;1270;23263;-76
2023/12/25 09:02:13;;;;;;;1.60;1.10;;;;;;;9.59;84.75;97504.63;226329;1273;22529;-75
2023/12/25 09:07:16;;;;;;;1.70;1.00;;;;;;;9.59;84.55;97523.20;226309;1273;22602;-75
2023/12/25 09:12:18;;;;;;;2.20;1.20;;;;;;;9.63;84.49;97517.95;226442;1273;22554;-75
2023/12/25 09:17:20;;;;;;;1.40;1.10;;;;;;;9.66;84.45;97522.41;226419;1270;23310;-75
2023/12/25 09:22:25;;;;;;;2.00;1.30;;;;;;;9.69;84.30;97537.13;226457;1269;22595;-74
2023/12/25 09:27:29;;;;;;;2.00;1.40;;;;;;;9.73;84.02;97523.67;226385;1273;22536;-75
2023/12/25 09:32:31;;;;;;;2.00;1.20;;;;;;;9.77;84.02;97534.81;226452;1272;22758;-75
2023/12/25 09:37:33;;;;;;;2.40;1.30;;;;;;;9.79;83.86;97539.33;226528;1270;22547;-75
2023/12/25 09:42:36;;;;;;;2.20;1.60;;;;;;;9.80;83.56;97545.36;226478;1270;22636;-75
2023/12/25 09:47:39;;;;;;;3.10;1.50;;;;;;;9.80;83.72;97536.60;226445;1270;22555;-76
2023/12/25 09:52:42;;;;;;;2.60;1.50;;;;;;;9.83;83.69;97547.83;226506;1273;22566;-76
2023/12/25 09:57:45;;;;;;;2.60;1.50;;;;;;;9.86;83.37;97540.30;226507;1273;22547;-75
2023/12/25 10:02:51;;;;;;;2.80;1.70;;;;;;;9.90;83.13;97545.80;226459;1269;22894;-76
2023/12/25 10:07:53;;;;;;;3.00;1.90;;;;;;;9.93;82.92;97546.59;226552;1268;22548;-76
2023/12/25 10:12:58;;;;;;;2.80;1.80;;;;;;;9.95;82.50;97552.80;226594;1272;22673;-76
2023/12/25 10:18:05;;;;;;;2.80;1.40;;;;;;;9.96;82.65;97553.17;226570;1274;22650;-75
2023/12/25 10:23:14;;;;;;;3.10;1.50;;;;;;;9.98;82.72;97554.86;226489;1267;22558;-76
2023/12/25 10:28:28;;;;;;;3.00;1.60;;;;;;;10.00;82.49;97558.99;226443;1272;22559;-75
2023/12/25 10:33:31;;;;;;;2.70;1.80;;;;;;;10.00;82.07;97549.94;226536;1272;22537;-76
2023/12/25 10:38:42;;;;;;;3.40;2.20;;;;;;;10.03;82.10;97546.71;227101;1250;22650;-76
2023/12/25 10:43:50;;;;;;;5.30;2.60;;;;;;;10.06;81.97;97556.77;226400;1272;24395;-74
2023/12/25 10:48:55;;;;;;;4.50;2.40;;;;;;;10.06;82.07;97568.83;226439;1267;22594;-74
2023/12/25 10:54:01;;;;;;;5.70;3.00;;;;;;;10.03;81.93;97561.91;226881;1274;22548;-74
2023/12/25 10:59:12;;;;;;;3.00;2.10;;;;;;;10.03;81.96;97562.59;226479;1267;22567;-75
2023/12/25 11:04:15;;;;;;;4.40;2.60;;;;;;;10.09;82.25;97561.80;226577;1273;22554;-74
2023/12/25 11:09:17;;;;;;;3.70;2.00;;;;;;;10.15;81.96;97565.26;226474;1270;22671;-75
2023/12/25 11:14:20;;;;;;;2.70;1.80;;;;;;;10.22;82.16;97561.66;226529;1272;22877;-74
2023/12/25 11:19:22;;;;;;;3.40;1.50;;;;;;;10.30;82.06;97560.25;226505;1269;22559;-74
2023/12/25 11:24:28;;;;;;;2.90;1.60;;;;;;;10.32;81.81;97562.84;226493;1273;22548;-74
2023/12/25 11:29:31;;;;;;;4.60;1.60;;;;;;;10.34;81.92;97571.15;226461;1267;126334;-75
2023/12/25 11:34:40;;;;;;;2.40;1.40;;;;;;;10.37;82.02;97575.23;226569;1274;22618;-74
2023/12/25 11:39:52;;;;;;;2.50;1.70;;;;;;;10.42;81.96;97583.17;226595;1266;22507;-75
2023/12/25 11:45:26;;;;;;;2.50;1.50;;;;;;;10.46;81.57;97586.00;226602;1269;22561;-75
2023/12/25 11:50:31;;;;;;;2.20;1.50;;;;;;;10.48;81.27;97585.86;226337;1273;23119;-76
2023/12/25 11:55:33;;;;;;;2.30;1.50;;;;;;;10.51;81.40;97594.54;226503;1272;22569;-75
2023/12/25 12:00:36;;;;;;;2.50;1.30;;;;;;;10.55;81.21;97600.77;226447;1273;22584;-76
2023/12/25 12:05:41;;;;;;;1.40;1.00;;;;;;;10.58;80.88;97593.56;226449;1272;25377;-75
2023/12/25 12:10:43;;;;;;;2.60;1.90;;;;;;;10.59;81.03;97596.68;226495;1272;22545;-75
2023/12/25 12:15:46;;;;;;;2.90;1.40;;;;;;;10.63;80.88;97598.89;226583;1271;22565;-76
2023/12/25 12:20:48;;;;;;;2.20;1.80;;;;;;;10.65;80.48;97611.80;226542;1270;22751;-75
2023/12/25 12:25:50;;;;;;;1.90;1.20;;;;;;;10.64;80.43;97613.67;226355;1273;25433;-76
2023/12/25 12:30:53;;;;;;;2.90;2.00;;;;;;;10.66;80.40;97608.33;226526;1264;22539;-75
2023/12/25 12:35:55;;;;;;;2.60;1.50;;;;;;;10.71;80.70;97614.95;226525;1269;24313;-76
2023/12/25 12:40:57;;;;;;;3.50;2.10;;;;;;;10.79;80.66;97595.17;226384;1273;22571;-76
2023/12/25 12:46:14;;;;;;;3.50;2.20;;;;;;;10.85;80.52;97617.73;226583;1272;22697;-75
2023/12/25 12:51:16;;;;;;;3.40;2.00;;;;;;;10.87;80.51;97625.10;226467;1269;24892;-75
2023/12/25 12:56:18;;;;;;;3.30;2.40;;;;;;;10.91;80.07;97631.95;226520;1269;22555;-74
2023/12/25 13:01:22;;;;;;;4.30;2.80;;;;;;;10.99;79.90;97634.23;226602;1272;25230;-76
2023/12/25 13:06:28;;;;;;;2.60;2.00;;;;;;;11.02;79.91;97645.09;226471;1270;25406;-75
2023/12/25 13:11:30;;;;;;;1.80;1.50;;;;;;;11.05;79.66;97662.34;226389;1273;22550;-76
2023/12/25 13:16:33;;;;;;;1.90;1.30;;;;;;;11.13;79.63;97669.60;226488;1266;22540;-75
2023/12/25 13:21:36;;;;;;;2.50;1.20;;;;;;;11.19;79.67;97685.27;226499;1267;22741;-76
2023/12/25 13:26:44;;;;;;;3.80;1.80;;;;;;;11.23;79.48;97672.05;226350;1273;22563;-75
2023/12/25 13:31:46;;;;;;;2.60;1.60;;;;;;;11.26;79.27;97675.45;226389;1270;23055;-76
2023/12/25 13:36:48;;;;;;;2.90;1.60;;;;;;;11.25;78.73;97679.02;226536;1272;22547;-75
2023/12/25 13:41:50;;;;;;;1.80;1.10;;;;;;;11.22;78.74;97677.44;226545;1272;22589;-76
2023/12/25 13:46:52;;;;;;;1.30;1.20;;;;;;;11.18;78.62;97688.90;226410;1270;24279;-76
2023/12/25 13:51:54;;;;;;;2.70;1.80;;;;;;;11.11;78.54;97697.47;226437;1270;22589;-74
2023/12/25 13:56:57;;;;;;;2.50;1.60;;;;;;;11.02;78.61;97700.55;226548;1272;22563;-74
2023/12/25 14:01:59;;;;;;;3.40;2.30;;;;;;;10.95;78.51;97699.73;226469;1269;22588;-74
2023/12/25 14:07:03;;;;;;;4.00;2.50;;;;;;;10.89;78.60;97692.98;226487;1272;22555;-74
2023/12/25 14:12:05;;;;;;;6.90;3.20;;;;;;;10.86;78.57;97700.48;226492;1269;22575;-74
2023/12/25 14:17:07;;;;;;;7.10;3.90;;;;;;;10.82;78.64;97705.86;226501;1272;22546;-77
2023/12/25 14:22:09;;;;;;;5.50;3.40;;;;;;;10.75;78.71;97708.84;226523;1266;25310;-74
2023/12/25 14:27:12;;;;;;;4.10;2.40;;;;;;;10.66;78.97;97710.41;226441;1269;22532;-74
2023/12/25 14:32:14;;;;;;;4.50;3.20;;;;;;;10.56;79.23;97714.26;226442;1260;22532;-74
2023/12/25 14:37:16;;;;;;;5.40;3.70;;;;;;;10.48;79.30;97720.28;226518;1273;22544;-74
2023/12/25 14:42:18;;;;;;;5.10;3.50;;;;;;;10.41;79.48;97722.48;226536;1272;22544;-74
2023/12/25 14:47:20;;;;;;;6.00;3.50;;;;;;;10.34;79.68;97730.90;226515;1272;22678;-74
2023/12/25 14:52:25;;;;;;;5.10;2.90;;;;;;;10.28;79.61;97738.08;226505;1269;22629;-73
2023/12/25 14:57:27;;;;;;;4.20;2.60;;;;;;;10.21;80.03;97756.80;226548;1272;25501;-74
2023/12/25 15:02:28;;;;;;;3.90;2.20;;;;;;;10.13;80.32;97775.48;226567;1251;24225;-74
2023/12/25 15:07:30;;;;;;;2.90;1.60;;;;;;;9.96;80.87;97786.06;226474;1269;22546;-74
2023/12/25 15:12:32;;;;;;;2.40;1.60;;;;;;;9.77;81.57;97792.16;226456;1269;22849;-75
2023/12/25 15:17:35;;;;;;;2.70;1.50;;;;;;;9.64;82.30;97798.93;226459;1273;22539;-75
2023/12/25 15:22:38;;;;;;;2.20;1.40;;;;;;;9.51;82.77;97809.79;226472;1269;23659;-75
2023/12/25 15:27:41;;;;;;;2.00;1.80;;;;;;;9.41;83.08;97809.19;226540;1272;22596;-75
2023/12/25 15:32:43;;;;;;;4.10;2.00;;;;;;;9.32;83.70;97812.08;226541;1273;22592;-75
2023/12/25 15:37:45;;;;;;;2.70;1.80;;;;;;;9.23;83.89;97827.23;226482;1266;22902;-75
2023/12/25 15:42:47;;;;;;;2.50;2.00;;;;;;;9.18;84.30;97828.75;226473;1272;22618;-75
2023/12/25 15:47:49;;;;;;;3.90;2.00;;;;;;;9.15;84.68;97834.22;226580;1272;22554;-75
2023/12/25 15:52:51;;;;;;;3.20;1.90;;;;;;;9.13;84.82;97841.75;226502;1273;25460;-74
2023/12/25 15:57:55;;;;;;;2.70;2.00;;;;;;;9.10;85.17;97852.64;226578;1273;22550;-74
2023/12/25 16:02:58;;;;;;;2.60;2.00;;;;;;;9.06;85.31;97852.33;226429;1272;22596;-74
2023/12/25 16:08:00;;;;;;;5.50;2.90;;;;;;;9.01;85.90;97853.17;226464;1273;22543;-74
2023/12/25 16:13:02;;;;;;;3.90;2.20;;;;;;;8.96;85.92;97874.02;226522;1273;22540;-75
2023/12/25 16:18:04;;;;;;;7.30;4.30;;;;;;;8.93;86.26;97889.30;226458;1256;23663;-74
2023/12/25 16:23:06;;;;;;;5.20;3.60;;;;;;;8.89;86.59;97903.98;226518;1269;22547;-74
2023/12/25 16:28:09;;;;;;;5.30;3.10;;;;;;;8.83;86.72;97907.89;226552;1270;24277;-74
2023/12/25 16:33:12;;;;;;;5.10;3.00;;;;;;;8.76;87.40;97935.98;226460;1266;22588;-75
2023/12/25 16:38:15;;;;;;;5.70;2.90;;;;;;;8.68;87.62;97914.48;226372;1272;22658;-75
2023/12/25 16:43:17;;;;;;;4.80;3.00;;;;;;;8.62;87.92;97917.93;226622;1271;22658;-74
2023/12/25 16:48:20;;;;;;;7.50;5.10;;;;;;;8.56;87.78;97913.09;226507;1273;22547;-75
2023/12/25 16:53:23;;;;;;;7.60;4.50;;;;;;;8.50;87.81;97919.46;226423;1269;22558;-75
2023/12/25 16:58:25;;;;;;;6.00;3.80;;;;;;;8.44;88.35;97920.45;226528;1270;22562;-74
2023/12/25 17:03:29;;;;;;;5.10;3.50;;;;;;;8.38;88.62;97939.29;226521;1272;22542;-74
2023/12/25 17:08:35;;;;;;;6.20;4.20;;;;;;;8.35;88.98;97950.36;226360;1269;22559;-75
2023/12/25 17:13:37;;;;;;;6.60;4.30;;;;;;;8.34;89.09;97958.38;226589;1269;22634;-75
2023/12/25 17:18:39;;;;;;;4.70;3.60;;;;;;;8.35;89.36;97973.77;226534;1271;22548;-75
2023/12/25 17:23:42;;;;;;;6.20;3.80;;;;;;;8.38;89.74;97965.08;226437;1269;24240;-75
2023/12/25 17:28:46;;;;;;;5.60;4.50;;;;;;;8.40;89.75;97966.73;226503;1273;22568;-75
2023/12/25 17:33:48;;;;;;;4.50;3.80;;;;;;;8.40;89.66;97972.19;226352;1269;22539;-75
2023/12/25 17:38:51;;;;;;;3.80;3.30;;;;;;;8.43;89.77;97981.33;226447;1270;22625;-75
2023/12/25 17:43:53;;;;;;;4.40;3.40;;;;;;;8.43;89.84;97984.67;226488;1273;22542;-75
2023/12/25 17:48:57;;;;;;;7.00;4.50;;;;;;;8.42;89.75;97998.80;226382;1272;22559;-75
2023/12/25 17:54:10;;;;;;;7.60;5.30;;;;;;;8.41;89.80;98014.55;226388;1267;22556;-74
2023/12/25 17:59:13;;;;;;;6.70;5.20;;;;;;;8.41;89.86;98015.81;226942;1272;22560;-75
2023/12/25 18:04:17;;;;;;;7.50;5.10;;;;;;;8.39;89.84;98008.82;226399;1272;25300;-76
2023/12/25 18:09:20;;;;;;;7.10;4.40;;;;;;;8.35;89.80;98007.05;226406;1266;22533;-75
2023/12/25 18:14:25;;;;;;;7.10;5.10;;;;;;;8.30;89.86;98004.54;227112;1273;22552;-75
2023/12/25 18:19:27;;;;;;;7.90;4.90;;;;;;;8.28;89.96;97998.84;226448;1272;23124;-75
2023/12/25 18:24:29;;;;;;;5.90;3.80;;;;;;;8.27;90.01;98000.51;226442;1271;24246;-75
2023/12/25 18:29:32;;;;;;;3.80;2.70;;;;;;;8.31;90.30;98008.92;226451;1269;22648;-75
2023/12/25 18:34:34;;;;;;;3.50;2.30;;;;;;;8.36;90.59;98014.98;226476;1273;22547;-75
2023/12/25 18:39:36;;;;;;;2.10;1.70;;;;;;;8.41;90.55;98021.15;226481;1273;22541;-75
2023/12/25 18:44:40;;;;;;;2.10;1.90;;;;;;;8.46;90.84;98035.75;226321;1273;22581;-76
2023/12/25 18:49:42;;;;;;;3.10;2.00;;;;;;;8.50;90.59;98042.50;226483;1273;22641;-75
2023/12/25 18:54:44;;;;;;;2.50;1.80;;;;;;;8.51;90.79;98051.58;226509;1273;22543;-75
2023/12/25 18:59:48;;;;;;;2.70;1.70;;;;;;;8.54;91.11;98055.81;226461;1274;22540;-75
2023/12/25 19:04:50;;;;;;;2.20;1.70;;;;;;;8.57;90.65;98050.81;226480;1273;22541;-75
2023/12/25 19:09:52;;;;;;;2.00;1.80;;;;;;;8.55;90.56;98056.31;226556;1272;22562;-75
2023/12/25 19:14:54;;;;;;;2.70;2.20;;;;;;;8.50;90.57;98067.73;226380;1272;22646;-75
2023/12/25 19:19:56;;;;;;;3.90;2.80;;;;;;;8.48;90.88;98081.89;226500;1272;24225;-75
2023/12/25 19:25:03;;;;;;;3.20;2.60;;;;;;;8.46;90.61;98086.81;226438;1272;22546;-75
2023/12/25 19:30:06;;;;;;;4.50;2.60;;;;;;;8.43;90.63;98093.61;226566;1269;25290;-75
2023/12/25 19:35:10;;;;;;;3.40;2.60;;;;;;;8.40;90.92;98091.16;226568;1272;22547;-75
2023/12/25 19:40:14;;;;;;;3.90;3.40;;;;;;;8.38;90.97;98087.33;226397;1272;22590;-75
2023/12/25 19:45:21;;;;;;;3.40;2.60;;;;;;;8.38;90.92;98085.84;226639;1269;22532;-75
2023/12/25 19:50:27;;;;;;;2.90;2.40;;;;;;;8.35;91.03;98089.09;226426;1273;22543;-75
2023/12/25 19:55:30;;;;;;;3.30;2.80;;;;;;;8.33;91.00;98091.33;226555;1273;22559;-75
2023/12/25 20:00:33;;;;;;;4.00;3.30;;;;;;;8.32;91.31;98093.98;226733;1273;22551;-75
2023/12/25 20:05:36;;;;;;;4.30;3.00;;;;;;;8.30;91.59;98102.86;226793;1269;24238;-75
2023/12/25 20:10:42;;;;;;;5.70;3.70;;;;;;;8.30;91.49;98104.21;226823;1260;22540;-75
2023/12/25 20:15:44;;;;;;;4.40;3.40;;;;;;;8.30;91.63;98103.84;226514;1274;22587;-77
2023/12/25 20:20:47;;;;;;;4.10;3.30;;;;;;;8.29;91.82;98114.45;226466;1274;22561;-75
2023/12/25 20:25:51;;;;;;;4.00;2.90;;;;;;;8.28;91.90;98113.51;226496;1273;22575;-74
2023/12/25 20:30:58;;;;;;;4.90;3.00;;;;;;;8.29;92.06;98120.48;226533;1274;22555;-75
2023/12/25 20:36:04;;;;;;;3.70;3.10;;;;;;;8.29;91.92;98127.97;226769;1273;23116;-75
2023/12/25 20:41:06;;;;;;;5.70;3.30;;;;;;;8.29;92.08;98113.44;226392;1273;22548;-75
2023/12/25 20:46:11;;;;;;;4.20;3.00;;;;;;;8.28;92.38;98113.95;226419;1273;22640;-75
2023/12/25 20:51:14;;;;;;;7.70;4.50;;;;;;;8.25;92.28;98111.98;226486;1273;22738;-75
2023/12/25 20:56:16;;;;;;;8.50;5.20;;;;;;;8.23;91.97;98111.59;226517;1273;25281;-75
2023/12/25 21:01:20;;;;;;;5.70;4.60;;;;;;;8.21;92.33;98117.88;226356;1273;22545;-75
2023/12/25 21:06:22;;;;;;;4.80;3.90;;;;;;;8.21;91.96;98111.89;226385;1251;24266;-75
2023/12/25 21:11:27;;;;;;;6.20;4.60;;;;;;;8.21;92.02;98113.02;226439;1273;22543;-75
2023/12/25 21:16:30;;;;;;;5.90;5.20;;;;;;;8.20;92.30;98110.10;226437;1272;23151;-76
2023/12/25 21:21:33;;;;;;;6.40;5.30;;;;;;;8.18;92.25;98102.80;226550;1271;22581;-75
2023/12/25 21:26:37;;;;;;;7.90;6.30;;;;;;;8.18;92.29;98099.19;226468;1273;25265;-76
2023/12/25 21:31:43;;;;;;;7.50;6.20;;;;;;;8.17;92.10;98100.67;226485;1272;25361;-76
2023/12/25 21:36:45;;;;;;;12.20;7.80;;;;;;;8.14;92.35;98097.84;226493;1273;22567;-76
2023/12/25 21:41:49;;;;;;;12.60;9.70;;;;;;;8.12;92.25;98105.35;226549;1273;22536;-75
2023/12/25 21:46:51;;;;;;;9.00;7.20;;;;;;;8.10;92.20;98100.44;226573;1272;22548;-75
2023/12/25 21:51:53;;;;;;;7.40;6.30;;;;;;;8.07;92.16;98099.79;226501;1273;24285;-75
2023/12/25 21:56:55;;;;;;;8.00;5.90;;;;;;;8.04;92.34;98101.61;226483;1273;22554;-75
2023/12/25 22:01:57;;;;;;;10.10;7.50;;;;;;;8.01;92.18;98101.96;226496;1273;22557;-76
2023/12/25 22:07:04;;;;;;;12.10;8.30;;;;;;;7.99;92.48;98106.05;226504;1273;22559;-76
2023/12/25 22:12:06;;;;;;;10.70;9.10;;;;;;;7.99;92.53;98114.50;226527;1274;24185;-75
2023/12/25 22:17:09;;;;;;;14.60;9.30;;;;;;;7.99;92.51;98110.62;226396;1273;23135;-76
2023/12/25 22:22:16;;;;;;;9.90;7.40;;;;;;;7.99;92.54;98106.45;226460;1266;22537;-76
2023/12/25 22:27:24;;;;;;;7.00;5.20;;;;;;;7.99;92.52;98102.80;226443;1256;22663;-76
2023/12/25 22:32:30;;;;;;;8.70;5.20;;;;;;;7.99;92.62;98099.05;226719;1273;22732;-76
2023/12/25 22:37:32;;;;;;;6.50;4.10;;;;;;;8.02;92.67;98109.02;226547;1273;25275;-76
2023/12/25 22:42:34;;;;;;;6.10;3.40;;;;;;;8.05;92.81;98107.42;226511;1273;22540;-76
2023/12/25 22:47:36;;;;;;;4.60;3.10;;;;;;;8.08;92.55;98109.52;226416;1267;24225;-76
2023/12/25 22:52:39;;;;;;;3.70;2.90;;;;;;;8.11;92.44;98105.91;226525;1273;22540;-76
2023/12/25 22:57:44;;;;;;;4.40;2.90;;;;;;;8.13;92.61;98105.23;226420;1269;22586;-76
2023/12/25 23:02:46;;;;;;;4.20;2.60;;;;;;;8.13;92.48;98107.10;226455;1272;22545;-76
2023/12/25 23:07:48;;;;;;;4.00;2.50;;;;;;;8.14;92.58;98107.92;226493;1273;22598;-76
2023/12/25 23:12:50;;;;;;;3.20;2.20;;;;;;;8.14;92.52;98106.14;226510;1270;23022;-76
2023/12/25 23:17:52;;;;;;;2.90;2.00;;;;;;;8.15;92.43;98103.59;226562;1272;22584;-75
2023/12/25 23:22:55;;;;;;;3.80;2.50;;;;;;;8.17;92.49;98102.05;226451;1273;22535;-75
2023/12/25 23:27:57;;;;;;;3.20;2.20;;;;;;;8.19;92.40;98097.09;226382;1267;121010;-75
2023/12/25 23:32:59;;;;;;;3.70;2.30;;;;;;;8.20;92.34;98082.90;226479;1274;22572;-75
2023/12/25 23:38:02;;;;;;;4.20;2.50;;;;;;;8.21;92.36;98078.41;226485;1272;24870;-75
2023/12/25 23:43:05;;;;;;;4.60;3.10;;;;;;;8.22;91.84;98086.04;226526;1272;22555;-76